createdAt,value
2018-12-16T00:00:33.345Z,0.00
2018-12-16T00:01:33.349Z,0.00
2018-12-16T00:02:33.333Z,0.00
2018-12-16T00:03:33.314Z,0.00
2018-12-16T00:04:33.310Z,0.00
2018-12-16T00:05:33.291Z,0.00
2018-12-16T00:06:33.309Z,0.00
2018-12-16T00:07:33.276Z,0.00
2018-12-16T00:08:33.270Z,0.00
2018-12-16T00:09:33.249Z,0.00
2018-12-16T00:10:33.236Z,0.00
2018-12-16T00:11:33.223Z,0.00
2018-12-16T00:12:33.246Z,0.00
2018-12-16T00:13:33.210Z,0.00
2018-12-16T00:14:33.194Z,0.00
2018-12-16T00:15:33.181Z,0.00
2018-12-16T00:16:33.169Z,0.00
2018-12-16T00:17:33.168Z,0.00
2018-12-16T00:18:33.147Z,0.00
2018-12-16T00:19:33.142Z,0.00
2018-12-16T00:20:33.142Z,0.00
2018-12-16T00:21:33.121Z,0.00
2018-12-16T00:22:33.116Z,0.00
2018-12-16T00:23:33.092Z,0.00
2018-12-16T00:24:33.085Z,0.00
2018-12-16T00:25:33.075Z,0.00
2018-12-16T00:26:33.056Z,0.00
2018-12-16T00:27:33.085Z,0.00
2018-12-16T00:28:33.043Z,0.00
2018-12-16T00:29:33.026Z,0.00
2018-12-16T00:30:33.013Z,0.00
2018-12-16T00:31:33.008Z,0.00
2018-12-16T00:32:33.003Z,0.00
2018-12-16T00:33:32.983Z,0.00
2018-12-16T00:34:32.970Z,0.00
2018-12-16T00:35:32.968Z,0.00
2018-12-16T00:36:32.949Z,0.00
2018-12-16T00:37:32.967Z,0.00
2018-12-16T00:38:32.922Z,0.00
2018-12-16T00:39:32.912Z,0.00
2018-12-16T00:40:32.901Z,0.00
2018-12-16T00:41:32.906Z,0.00
2018-12-16T00:42:32.900Z,0.00
2018-12-16T00:43:32.867Z,0.00
2018-12-16T00:44:32.858Z,0.00
2018-12-16T00:45:32.845Z,0.00
2018-12-16T00:46:32.834Z,0.00
2018-12-16T00:47:32.837Z,4.00
2018-12-16T00:48:32.811Z,4.00
2018-12-16T00:49:32.805Z,4.00
2018-12-16T00:50:32.793Z,0.00
2018-12-16T00:51:32.778Z,0.00
2018-12-16T00:52:36.501Z,0.00
2018-12-16T00:53:32.762Z,0.00
2018-12-16T00:54:32.755Z,0.00
2018-12-16T00:55:32.736Z,0.00
2018-12-16T00:56:32.746Z,0.00
2018-12-16T00:57:32.772Z,0.00
2018-12-16T00:58:32.756Z,0.00
2018-12-16T00:59:32.717Z,0.00
2018-12-16T01:00:32.706Z,0.00
2018-12-16T01:01:32.681Z,0.00
2018-12-16T01:02:32.658Z,0.00
2018-12-16T01:03:32.664Z,0.00
2018-12-16T01:04:32.671Z,0.00
2018-12-16T01:05:32.623Z,0.00
2018-12-16T01:06:32.610Z,0.00
2018-12-16T01:07:32.604Z,0.00
2018-12-16T01:08:32.607Z,0.00
2018-12-16T01:09:32.579Z,0.00
2018-12-16T01:10:32.569Z,0.00
2018-12-16T01:11:32.557Z,0.00
2018-12-16T01:12:32.571Z,0.00
2018-12-16T01:13:32.545Z,0.00
2018-12-16T01:14:32.526Z,0.00
2018-12-16T01:15:32.677Z,0.00
2018-12-16T01:16:32.498Z,0.00
2018-12-16T01:17:32.517Z,0.00
2018-12-16T01:18:32.499Z,0.00
2018-12-16T01:19:32.474Z,0.00
2018-12-16T01:20:32.456Z,0.00
2018-12-16T01:21:32.443Z,0.00
2018-12-16T01:22:32.432Z,0.00
2018-12-16T01:23:32.436Z,0.00
2018-12-16T01:24:32.413Z,0.00
2018-12-16T01:25:32.403Z,0.00
2018-12-16T01:26:32.388Z,0.00
2018-12-16T01:27:32.403Z,0.00
2018-12-16T01:28:32.391Z,0.00
2018-12-16T01:29:32.354Z,0.00
2018-12-16T01:30:32.354Z,0.00
2018-12-16T01:31:32.333Z,0.00
2018-12-16T01:32:32.321Z,0.00
2018-12-16T01:33:32.325Z,0.00
2018-12-16T01:34:32.306Z,0.00
2018-12-16T01:35:32.290Z,0.00
2018-12-16T01:36:32.276Z,0.00
2018-12-16T01:37:32.284Z,0.00
2018-12-16T01:38:32.267Z,0.00
2018-12-16T01:39:32.243Z,0.00
2018-12-16T01:40:32.246Z,0.00
2018-12-16T01:41:32.223Z,0.00
2018-12-16T01:42:32.222Z,0.00
2018-12-16T01:43:32.210Z,0.00
2018-12-16T01:44:32.199Z,0.00
2018-12-16T01:45:32.185Z,0.00
2018-12-16T01:46:32.168Z,0.00
2018-12-16T01:47:32.158Z,0.00
2018-12-16T01:48:32.151Z,0.00
2018-12-16T01:49:32.135Z,0.00
2018-12-16T01:50:32.157Z,0.00
2018-12-16T01:51:32.109Z,0.00
2018-12-16T01:52:32.102Z,0.00
2018-12-16T01:53:32.103Z,0.00
2018-12-16T01:54:32.075Z,0.00
2018-12-16T01:55:32.104Z,0.00
2018-12-16T01:56:32.054Z,0.00
2018-12-16T01:57:32.048Z,0.00
2018-12-16T01:58:32.040Z,0.00
2018-12-16T01:59:32.020Z,0.00
2018-12-16T02:00:32.009Z,0.00
2018-12-16T02:01:31.999Z,0.00
2018-12-16T02:02:31.989Z,0.00
2018-12-16T02:03:32.002Z,0.00
2018-12-16T02:04:31.966Z,0.00
2018-12-16T02:05:31.955Z,0.00
2018-12-16T02:06:31.947Z,0.00
2018-12-16T02:07:31.932Z,0.00
2018-12-16T02:08:31.933Z,0.00
2018-12-16T02:09:31.926Z,0.00
2018-12-16T02:10:31.895Z,0.00
2018-12-16T02:11:31.884Z,0.00
2018-12-16T02:12:31.872Z,0.00
2018-12-16T02:13:31.877Z,0.00
2018-12-16T02:14:31.862Z,0.00
2018-12-16T02:15:31.840Z,0.00
2018-12-16T02:16:31.829Z,0.00
2018-12-16T02:17:31.818Z,0.00
2018-12-16T02:18:31.807Z,0.00
2018-12-16T02:19:31.811Z,0.00
2018-12-16T02:20:31.805Z,0.00
2018-12-16T02:21:31.772Z,0.00
2018-12-16T02:22:31.762Z,0.00
2018-12-16T02:23:31.754Z,0.00
2018-12-16T02:24:31.752Z,0.00
2018-12-16T02:25:31.734Z,0.00
2018-12-16T02:26:31.734Z,0.00
2018-12-16T02:27:31.707Z,0.00
2018-12-16T02:28:31.698Z,0.00
2018-12-16T02:29:31.699Z,0.00
2018-12-16T02:30:31.676Z,0.00
2018-12-16T02:31:31.680Z,0.00
2018-12-16T02:32:31.649Z,0.00
2018-12-16T02:33:31.643Z,0.00
2018-12-16T02:34:31.640Z,0.00
2018-12-16T02:35:31.616Z,0.00
2018-12-16T02:36:31.640Z,0.00
2018-12-16T02:37:31.609Z,0.00
2018-12-16T02:38:31.586Z,0.00
2018-12-16T02:39:31.585Z,0.00
2018-12-16T02:40:31.560Z,0.00
2018-12-16T02:41:31.555Z,0.00
2018-12-16T02:42:31.543Z,0.00
2018-12-16T02:43:31.528Z,0.00
2018-12-16T02:44:31.528Z,0.00
2018-12-16T02:45:31.505Z,0.00
2018-12-16T02:46:31.514Z,0.00
2018-12-16T02:47:31.496Z,0.00
2018-12-16T02:48:31.475Z,0.00
2018-12-16T02:49:31.494Z,0.00
2018-12-16T02:50:31.450Z,0.00
2018-12-16T02:51:31.445Z,0.00
2018-12-16T02:52:31.428Z,0.00
2018-12-16T02:53:31.423Z,0.00
2018-12-16T02:54:31.430Z,0.00
2018-12-16T02:55:31.398Z,0.00
2018-12-16T02:56:31.382Z,0.00
2018-12-16T02:57:31.371Z,0.00
2018-12-16T02:58:31.364Z,0.00
2018-12-16T02:59:31.379Z,0.00
2018-12-16T03:00:31.342Z,0.00
2018-12-16T03:01:31.329Z,0.00
2018-12-16T03:02:31.321Z,0.00
2018-12-16T03:03:31.307Z,0.00
2018-12-16T03:04:31.332Z,0.00
2018-12-16T03:05:31.289Z,0.00
2018-12-16T03:06:31.282Z,0.00
2018-12-16T03:07:31.262Z,0.00
2018-12-16T03:08:31.265Z,0.00
2018-12-16T03:09:31.317Z,0.00
2018-12-16T03:10:31.432Z,0.00
2018-12-16T03:11:31.331Z,0.00
2018-12-16T03:12:31.231Z,0.00
2018-12-16T03:13:31.192Z,0.00
2018-12-16T03:14:31.182Z,0.00
2018-12-16T03:15:31.185Z,0.00
2018-12-16T03:16:31.161Z,0.00
2018-12-16T03:17:31.146Z,0.00
2018-12-16T03:18:31.140Z,0.00
2018-12-16T03:19:31.134Z,0.00
2018-12-16T03:20:31.138Z,0.00
2018-12-16T03:21:31.110Z,0.00
2018-12-16T03:22:31.105Z,0.00
2018-12-16T03:23:31.084Z,0.00
2018-12-16T03:24:31.073Z,0.00
2018-12-16T03:25:31.072Z,0.00
2018-12-16T03:26:35.850Z,0.00
2018-12-16T03:27:32.044Z,0.00
2018-12-16T03:28:31.044Z,0.00
2018-12-16T03:29:31.015Z,0.00
2018-12-16T03:30:31.050Z,0.00
2018-12-16T03:31:31.005Z,0.00
2018-12-16T03:32:30.987Z,0.00
2018-12-16T03:33:30.979Z,0.00
2018-12-16T03:34:30.969Z,0.00
2018-12-16T03:35:30.998Z,0.00
2018-12-16T03:36:30.940Z,0.00
2018-12-16T03:37:30.928Z,0.00
2018-12-16T03:38:30.914Z,0.00
2018-12-16T03:39:30.904Z,0.00
2018-12-16T03:40:30.917Z,0.00
2018-12-16T03:41:30.882Z,0.00
2018-12-16T03:42:30.871Z,0.00
2018-12-16T03:43:30.864Z,0.00
2018-12-16T03:44:30.862Z,0.00
2018-12-16T03:45:30.854Z,0.00
2018-12-16T03:46:30.831Z,0.00
2018-12-16T03:47:30.814Z,0.00
2018-12-16T03:48:30.801Z,0.00
2018-12-16T03:49:30.790Z,0.00
2018-12-16T03:50:30.791Z,0.00
2018-12-16T03:51:30.773Z,0.00
2018-12-16T03:52:30.759Z,0.00
2018-12-16T03:53:30.751Z,0.00
2018-12-16T03:54:30.741Z,0.00
2018-12-16T03:55:30.737Z,0.00
2018-12-16T03:56:30.715Z,0.00
2018-12-16T03:57:30.710Z,0.00
2018-12-16T03:58:30.706Z,0.00
2018-12-16T03:59:30.682Z,0.00
2018-12-16T04:00:30.680Z,0.00
2018-12-16T04:01:30.663Z,0.00
2018-12-16T04:02:30.648Z,0.00
2018-12-16T04:03:30.637Z,0.00
2018-12-16T04:04:30.631Z,0.00
2018-12-16T04:05:30.627Z,0.00
2018-12-16T04:06:30.612Z,0.00
2018-12-16T04:07:30.596Z,0.00
2018-12-16T04:08:30.608Z,0.00
2018-12-16T04:09:30.567Z,0.00
2018-12-16T04:10:30.575Z,0.00
2018-12-16T04:11:30.547Z,0.00
2018-12-16T04:12:30.536Z,0.00
2018-12-16T04:13:30.525Z,0.00
2018-12-16T04:14:30.516Z,0.00
2018-12-16T04:15:30.512Z,0.00
2018-12-16T04:16:30.489Z,0.00
2018-12-16T04:17:30.478Z,0.00
2018-12-16T04:18:30.477Z,0.00
2018-12-16T04:19:30.460Z,0.00
2018-12-16T04:20:30.461Z,0.00
2018-12-16T04:21:30.446Z,0.00
2018-12-16T04:22:30.434Z,0.00
2018-12-16T04:23:30.415Z,0.00
2018-12-16T04:24:30.421Z,0.00
2018-12-16T04:25:30.402Z,0.00
2018-12-16T04:26:30.382Z,0.00
2018-12-16T04:27:30.378Z,0.00
2018-12-16T04:28:30.357Z,0.00
2018-12-16T04:29:30.349Z,0.00
2018-12-16T04:30:30.358Z,0.00
2018-12-16T04:31:30.343Z,0.00
2018-12-16T04:32:30.320Z,0.00
2018-12-16T04:33:30.300Z,0.00
2018-12-16T04:34:30.294Z,0.00
2018-12-16T04:35:30.291Z,0.00
2018-12-16T04:36:30.276Z,0.00
2018-12-16T04:37:30.266Z,0.00
2018-12-16T04:38:30.245Z,0.00
2018-12-16T04:39:30.235Z,0.00
2018-12-16T04:40:30.239Z,0.00
2018-12-16T04:41:30.212Z,0.00
2018-12-16T04:42:30.206Z,0.00
2018-12-16T04:43:30.191Z,0.00
2018-12-16T04:44:30.190Z,0.00
2018-12-16T04:45:30.203Z,0.00
2018-12-16T04:46:30.159Z,0.00
2018-12-16T04:47:30.153Z,0.00
2018-12-16T04:48:30.135Z,0.00
2018-12-16T04:49:30.123Z,0.00
2018-12-16T04:50:30.118Z,0.00
2018-12-16T04:51:30.117Z,0.00
2018-12-16T04:52:30.097Z,0.00
2018-12-16T04:53:35.958Z,0.00
2018-12-16T04:54:31.069Z,0.00
2018-12-16T04:55:30.060Z,0.00
2018-12-16T04:56:30.066Z,0.00
2018-12-16T04:57:30.033Z,0.00
2018-12-16T04:58:30.025Z,0.00
2018-12-16T04:59:30.009Z,0.00
2018-12-16T05:00:30.007Z,0.00
2018-12-16T05:01:30.019Z,0.00
2018-12-16T05:02:29.982Z,0.00
2018-12-16T05:03:29.971Z,0.00
2018-12-16T05:04:29.954Z,0.00
2018-12-16T05:05:29.946Z,0.00
2018-12-16T05:06:29.956Z,0.00
2018-12-16T05:07:29.927Z,0.00
2018-12-16T05:08:29.910Z,0.00
2018-12-16T05:09:29.904Z,0.00
2018-12-16T05:10:29.888Z,0.00
2018-12-16T05:11:29.889Z,0.00
2018-12-16T05:12:29.868Z,0.00
2018-12-16T05:13:29.856Z,0.00
2018-12-16T05:14:29.855Z,0.00
2018-12-16T05:15:29.831Z,0.00
2018-12-16T05:16:29.837Z,0.00
2018-12-16T05:17:29.829Z,0.00
2018-12-16T05:18:29.800Z,0.00
2018-12-16T05:19:29.790Z,0.00
2018-12-16T05:20:29.778Z,0.00
2018-12-16T05:21:29.785Z,0.00
2018-12-16T05:22:29.755Z,0.00
2018-12-16T05:23:29.744Z,0.00
2018-12-16T05:24:29.730Z,0.00
2018-12-16T05:25:29.723Z,0.00
2018-12-16T05:26:29.733Z,0.00
2018-12-16T05:27:29.707Z,0.00
2018-12-16T05:28:29.688Z,0.00
2018-12-16T05:29:29.676Z,0.00
2018-12-16T05:30:29.682Z,0.00
2018-12-16T05:31:29.676Z,0.00
2018-12-16T05:32:29.679Z,0.00
2018-12-16T05:33:29.637Z,0.00
2018-12-16T05:34:29.623Z,0.00
2018-12-16T05:35:29.610Z,0.00
2018-12-16T05:36:29.599Z,0.00
2018-12-16T05:37:29.604Z,0.00
2018-12-16T05:38:29.576Z,0.00
2018-12-16T05:39:29.570Z,0.00
2018-12-16T05:40:29.571Z,0.00
2018-12-16T05:41:29.541Z,0.00
2018-12-16T05:42:29.553Z,0.00
2018-12-16T05:43:29.517Z,0.00
2018-12-16T05:44:29.511Z,0.00
2018-12-16T05:45:29.502Z,0.00
2018-12-16T05:46:29.490Z,0.00
2018-12-16T05:47:29.488Z,0.00
2018-12-16T05:48:29.466Z,0.00
2018-12-16T05:49:29.455Z,0.00
2018-12-16T05:50:29.446Z,0.00
2018-12-16T05:51:29.439Z,0.00
2018-12-16T05:52:29.447Z,0.00
2018-12-16T05:53:29.407Z,0.00
2018-12-16T05:54:29.396Z,0.00
2018-12-16T05:55:29.391Z,0.00
2018-12-16T05:56:29.376Z,0.00
2018-12-16T05:57:29.378Z,0.00
2018-12-16T05:58:29.353Z,0.00
2018-12-16T05:59:29.345Z,0.00
2018-12-16T06:00:29.332Z,0.00
2018-12-16T06:01:29.324Z,0.00
2018-12-16T06:02:29.319Z,0.00
2018-12-16T06:03:29.332Z,0.00
2018-12-16T06:04:29.287Z,0.00
2018-12-16T06:05:29.271Z,0.00
2018-12-16T06:06:29.269Z,0.00
2018-12-16T06:07:29.273Z,0.00
2018-12-16T06:08:29.243Z,0.00
2018-12-16T06:09:29.227Z,0.00
2018-12-16T06:10:29.218Z,0.00
2018-12-16T06:11:29.205Z,0.00
2018-12-16T06:12:29.209Z,0.00
2018-12-16T06:13:29.190Z,0.00
2018-12-16T06:14:29.185Z,0.00
2018-12-16T06:15:29.165Z,0.00
2018-12-16T06:16:29.162Z,0.00
2018-12-16T06:17:29.158Z,0.00
2018-12-16T06:18:29.128Z,0.00
2018-12-16T06:19:29.120Z,0.00
2018-12-16T06:20:29.106Z,0.00
2018-12-16T06:21:29.096Z,0.00
2018-12-16T06:22:29.093Z,0.00
2018-12-16T06:23:29.074Z,0.00
2018-12-16T06:24:29.099Z,0.00
2018-12-16T06:25:29.055Z,0.00
2018-12-16T06:26:29.069Z,0.00
2018-12-16T06:27:29.039Z,0.00
2018-12-16T06:28:29.022Z,0.00
2018-12-16T06:29:29.006Z,0.00
2018-12-16T06:30:28.998Z,0.00
2018-12-16T06:31:29.005Z,0.00
2018-12-16T06:32:28.982Z,0.00
2018-12-16T06:33:28.961Z,0.00
2018-12-16T06:34:28.953Z,0.00
2018-12-16T06:35:28.939Z,0.00
2018-12-16T06:36:28.930Z,0.00
2018-12-16T06:37:28.927Z,0.00
2018-12-16T06:38:28.910Z,0.00
2018-12-16T06:39:28.901Z,0.00
2018-12-16T06:40:28.882Z,0.00
2018-12-16T06:41:28.875Z,0.00
2018-12-16T06:42:28.889Z,0.00
2018-12-16T06:43:28.868Z,0.00
2018-12-16T06:44:28.839Z,0.00
2018-12-16T06:45:28.826Z,0.00
2018-12-16T06:46:28.818Z,0.00
2018-12-16T06:47:28.817Z,0.00
2018-12-16T06:48:28.804Z,0.00
2018-12-16T06:49:28.801Z,0.00
2018-12-16T06:50:28.769Z,0.00
2018-12-16T06:51:28.758Z,0.00
2018-12-16T06:52:28.751Z,0.00
2018-12-16T06:53:28.756Z,0.00
2018-12-16T06:54:28.737Z,0.00
2018-12-16T06:55:28.713Z,0.00
2018-12-16T06:56:28.705Z,0.00
2018-12-16T06:57:28.692Z,0.00
2018-12-16T06:58:28.696Z,0.00
2018-12-16T06:59:28.670Z,0.00
2018-12-16T07:00:28.659Z,0.00
2018-12-16T07:01:28.661Z,0.00
2018-12-16T07:02:28.645Z,0.00
2018-12-16T07:03:28.641Z,0.00
2018-12-16T07:04:28.625Z,0.00
2018-12-16T07:05:28.601Z,0.00
2018-12-16T07:06:28.592Z,0.00
2018-12-16T07:07:28.584Z,0.00
2018-12-16T07:08:28.580Z,0.00
2018-12-16T07:09:28.571Z,0.00
2018-12-16T07:10:28.547Z,0.00
2018-12-16T07:11:28.543Z,0.00
2018-12-16T07:12:28.547Z,0.00
2018-12-16T07:13:28.526Z,0.00
2018-12-16T07:14:28.508Z,0.00
2018-12-16T07:15:28.502Z,0.00
2018-12-16T07:16:28.522Z,0.00
2018-12-16T07:17:28.485Z,0.00
2018-12-16T07:18:28.480Z,0.00
2018-12-16T07:19:28.453Z,0.00
2018-12-16T07:20:28.446Z,0.00
2018-12-16T07:21:28.435Z,0.00
2018-12-16T07:22:28.423Z,0.00
2018-12-16T07:23:28.427Z,0.00
2018-12-16T07:24:28.390Z,0.00
2018-12-16T07:25:28.457Z,0.00
2018-12-16T07:26:28.399Z,0.00
2018-12-16T07:27:28.384Z,0.00
2018-12-16T07:28:28.385Z,0.00
2018-12-16T07:29:28.349Z,0.00
2018-12-16T07:30:28.340Z,0.00
2018-12-16T07:31:28.312Z,0.00
2018-12-16T07:32:28.343Z,0.00
2018-12-16T07:33:28.317Z,0.00
2018-12-16T07:34:28.306Z,0.00
2018-12-16T07:35:28.337Z,0.00
2018-12-16T07:36:28.259Z,0.00
2018-12-16T07:37:28.246Z,0.00
2018-12-16T07:38:28.268Z,0.00
2018-12-16T07:39:28.255Z,0.00
2018-12-16T07:40:28.272Z,0.00
2018-12-16T07:41:28.214Z,0.00
2018-12-16T07:42:28.189Z,4.00
2018-12-16T07:43:28.213Z,4.00
2018-12-16T07:44:28.215Z,4.00
2018-12-16T07:45:28.165Z,4.00
2018-12-16T07:46:28.145Z,4.00
2018-12-16T07:47:28.143Z,4.00
2018-12-16T07:48:28.152Z,4.00
2018-12-16T07:49:28.117Z,4.00
2018-12-16T07:50:28.102Z,0.00
2018-12-16T07:51:28.094Z,0.00
2018-12-16T07:52:28.122Z,0.00
2018-12-16T07:53:28.083Z,4.00
2018-12-16T07:54:28.056Z,4.00
2018-12-16T07:55:28.080Z,4.00
2018-12-16T07:56:28.042Z,4.00
2018-12-16T07:57:28.039Z,0.00
2018-12-16T07:58:28.068Z,0.00
2018-12-16T07:59:28.020Z,0.00
2018-12-16T08:00:28.018Z,0.00
2018-12-16T08:01:27.987Z,0.00
2018-12-16T08:02:28.005Z,0.00
2018-12-16T08:03:28.006Z,0.00
2018-12-16T08:04:28.001Z,0.00
2018-12-16T08:05:27.935Z,0.00
2018-12-16T08:06:27.925Z,4.00
2018-12-16T08:07:27.932Z,4.00
2018-12-16T08:08:27.901Z,4.00
2018-12-16T08:09:27.906Z,4.00
2018-12-16T08:10:27.882Z,4.00
2018-12-16T08:11:27.884Z,4.00
2018-12-16T08:12:27.864Z,4.00
2018-12-16T08:13:27.843Z,4.00
2018-12-16T08:14:27.849Z,8.00
2018-12-16T08:15:27.819Z,8.00
2018-12-16T08:16:27.813Z,4.00
2018-12-16T08:17:27.801Z,4.00
2018-12-16T08:18:27.790Z,8.00
2018-12-16T08:19:27.792Z,8.00
2018-12-16T08:20:27.812Z,8.00
2018-12-16T08:21:27.787Z,8.00
2018-12-16T08:22:27.741Z,4.00
2018-12-16T08:23:27.730Z,4.00
2018-12-16T08:24:27.734Z,8.00
2018-12-16T08:25:27.720Z,8.00
2018-12-16T08:26:27.699Z,8.00
2018-12-16T08:27:27.692Z,8.00
2018-12-16T08:28:27.682Z,8.00
2018-12-16T08:29:27.687Z,12.00
2018-12-16T08:30:27.655Z,8.00
2018-12-16T08:31:27.649Z,8.00
2018-12-16T08:32:27.633Z,12.00
2018-12-16T08:33:27.620Z,12.00
2018-12-16T08:34:27.644Z,16.00
2018-12-16T08:35:27.604Z,16.00
2018-12-16T08:36:27.611Z,12.00
2018-12-16T08:37:27.581Z,12.00
2018-12-16T08:38:27.571Z,12.00
2018-12-16T08:39:27.587Z,12.00
2018-12-16T08:40:27.545Z,12.00
2018-12-16T08:41:27.539Z,16.00
2018-12-16T08:42:27.523Z,12.00
2018-12-16T08:43:27.510Z,16.00
2018-12-16T08:44:27.538Z,16.00
2018-12-16T08:45:27.504Z,16.00
2018-12-16T08:46:27.476Z,16.00
2018-12-16T08:47:33.126Z,12.00
2018-12-16T08:48:28.455Z,12.00
2018-12-16T08:49:27.448Z,12.00
2018-12-16T08:50:27.445Z,12.00
2018-12-16T08:51:27.424Z,16.00
2018-12-16T08:52:27.411Z,16.00
2018-12-16T08:53:27.398Z,12.00
2018-12-16T08:54:30.169Z,12.00
2018-12-16T08:55:27.420Z,8.00
2018-12-16T08:56:27.368Z,12.00
2018-12-16T08:57:27.365Z,8.00
2018-12-16T08:58:27.343Z,12.00
2018-12-16T08:59:27.331Z,16.00
2018-12-16T09:00:27.357Z,16.00
2018-12-16T09:01:27.309Z,20.00
2018-12-16T09:02:27.298Z,20.00
2018-12-16T09:03:27.292Z,20.00
2018-12-16T09:04:27.287Z,20.00
2018-12-16T09:05:27.275Z,20.00
2018-12-16T09:06:27.267Z,16.00
2018-12-16T09:07:27.256Z,20.00
2018-12-16T09:08:27.233Z,16.00
2018-12-16T09:09:27.219Z,20.00
2018-12-16T09:10:33.929Z,20.00
2018-12-16T09:11:28.196Z,16.00
2018-12-16T09:12:27.197Z,16.00
2018-12-16T09:13:27.182Z,16.00
2018-12-16T09:14:27.163Z,16.00
2018-12-16T09:15:27.170Z,16.00
2018-12-16T09:16:27.142Z,16.00
2018-12-16T09:17:27.133Z,20.00
2018-12-16T09:18:27.120Z,16.00
2018-12-16T09:19:27.125Z,16.00
2018-12-16T09:20:27.107Z,20.00
2018-12-16T09:21:27.085Z,20.00
2018-12-16T09:22:27.076Z,16.00
2018-12-16T09:23:27.063Z,20.00
2018-12-16T09:24:27.054Z,16.00
2018-12-16T09:25:27.056Z,12.00
2018-12-16T09:26:27.044Z,16.00
2018-12-16T09:27:27.025Z,12.00
2018-12-16T09:28:27.018Z,12.00
2018-12-16T09:29:26.998Z,12.00
2018-12-16T09:30:27.024Z,12.00
2018-12-16T09:31:26.973Z,16.00
2018-12-16T09:32:26.962Z,12.00
2018-12-16T09:33:26.959Z,12.00
2018-12-16T09:34:26.941Z,16.00
2018-12-16T09:35:26.960Z,16.00
2018-12-16T09:36:26.918Z,16.00
2018-12-16T09:37:26.908Z,16.00
2018-12-16T09:38:26.936Z,16.00
2018-12-16T09:39:26.885Z,16.00
2018-12-16T09:40:26.887Z,20.00
2018-12-16T09:41:26.873Z,20.00
2018-12-16T09:42:26.851Z,20.00
2018-12-16T09:43:26.851Z,24.00
2018-12-16T09:44:26.866Z,24.00
2018-12-16T09:45:26.837Z,24.00
2018-12-16T09:46:26.824Z,28.00
2018-12-16T09:47:26.795Z,12.00
2018-12-16T09:48:26.789Z,20.00
2018-12-16T09:49:26.772Z,20.00
2018-12-16T09:50:26.762Z,28.00
2018-12-16T09:51:26.769Z,28.00
2018-12-16T09:52:26.744Z,32.00
2018-12-16T09:53:26.748Z,32.00
2018-12-16T09:54:26.727Z,32.00
2018-12-16T09:55:26.707Z,32.00
2018-12-16T09:56:26.722Z,32.00
2018-12-16T09:57:26.686Z,28.00
2018-12-16T09:58:26.687Z,32.00
2018-12-16T09:59:26.721Z,28.00
2018-12-16T10:00:26.648Z,28.00
2018-12-16T10:01:26.656Z,32.00
2018-12-16T10:02:26.642Z,32.00
2018-12-16T10:03:26.618Z,32.00
2018-12-16T10:04:26.611Z,36.00
2018-12-16T10:05:26.601Z,36.00
2018-12-16T10:06:26.606Z,40.00
2018-12-16T10:07:26.573Z,40.00
2018-12-16T10:08:26.565Z,40.00
2018-12-16T10:09:26.556Z,40.00
2018-12-16T10:10:26.541Z,44.00
2018-12-16T10:11:26.540Z,44.00
2018-12-16T10:12:26.523Z,48.00
2018-12-16T10:13:26.506Z,48.00
2018-12-16T10:14:26.508Z,44.00
2018-12-16T10:15:26.480Z,48.00
2018-12-16T10:16:26.515Z,48.00
2018-12-16T10:17:26.464Z,48.00
2018-12-16T10:18:26.466Z,48.00
2018-12-16T10:19:26.450Z,48.00
2018-12-16T10:20:26.426Z,52.00
2018-12-16T10:21:26.416Z,48.00
2018-12-16T10:22:26.418Z,48.00
2018-12-16T10:23:26.403Z,48.00
2018-12-16T10:24:26.381Z,48.00
2018-12-16T10:25:26.379Z,52.00
2018-12-16T10:26:26.392Z,48.00
2018-12-16T10:27:26.367Z,48.00
2018-12-16T10:28:26.344Z,48.00
2018-12-16T10:29:26.336Z,44.00
2018-12-16T10:30:26.314Z,48.00
2018-12-16T10:31:26.312Z,48.00
2018-12-16T10:32:26.324Z,48.00
2018-12-16T10:33:26.279Z,48.00
2018-12-16T10:34:26.270Z,44.00
2018-12-16T10:35:26.265Z,44.00
2018-12-16T10:36:26.246Z,44.00
2018-12-16T10:37:26.248Z,44.00
2018-12-16T10:38:26.225Z,48.00
2018-12-16T10:39:26.228Z,44.00
2018-12-16T10:40:26.210Z,48.00
2018-12-16T10:41:26.192Z,48.00
2018-12-16T10:42:26.202Z,52.00
2018-12-16T10:43:26.185Z,52.00
2018-12-16T10:44:26.159Z,52.00
2018-12-16T10:45:26.162Z,48.00
2018-12-16T10:46:26.134Z,52.00
2018-12-16T10:47:26.135Z,52.00
2018-12-16T10:48:26.133Z,52.00
2018-12-16T10:49:26.117Z,52.00
2018-12-16T10:50:26.090Z,48.00
2018-12-16T10:51:26.102Z,52.00
2018-12-16T10:52:26.102Z,52.00
2018-12-16T10:53:26.054Z,52.00
2018-12-16T10:54:26.053Z,52.00
2018-12-16T10:55:26.037Z,52.00
2018-12-16T10:56:26.027Z,56.00
2018-12-16T10:57:26.038Z,52.00
2018-12-16T10:58:26.008Z,52.00
2018-12-16T10:59:25.993Z,52.00
2018-12-16T11:00:26.000Z,52.00
2018-12-16T11:01:25.968Z,52.00
2018-12-16T11:02:26.015Z,52.00
2018-12-16T11:03:25.944Z,52.00
2018-12-16T11:04:25.937Z,48.00
2018-12-16T11:05:25.932Z,48.00
2018-12-16T11:06:25.915Z,48.00
2018-12-16T11:07:25.913Z,48.00
2018-12-16T11:08:25.891Z,48.00
2018-12-16T11:09:25.884Z,52.00
2018-12-16T11:10:25.866Z,48.00
2018-12-16T11:11:25.869Z,52.00
2018-12-16T11:12:25.902Z,52.00
2018-12-16T11:13:25.833Z,52.00
2018-12-16T11:14:25.851Z,52.00
2018-12-16T11:15:25.814Z,52.00
2018-12-16T11:16:25.801Z,52.00
2018-12-16T11:17:25.789Z,52.00
2018-12-16T11:18:25.787Z,52.00
2018-12-16T11:19:25.774Z,52.00
2018-12-16T11:20:25.763Z,52.00
2018-12-16T11:21:25.758Z,44.00
2018-12-16T11:22:25.748Z,44.00
2018-12-16T11:23:25.737Z,40.00
2018-12-16T11:24:25.730Z,40.00
2018-12-16T11:25:25.722Z,36.00
2018-12-16T11:26:25.696Z,40.00
2018-12-16T11:27:25.695Z,40.00
2018-12-16T11:28:25.687Z,40.00
2018-12-16T11:29:25.655Z,40.00
2018-12-16T11:30:25.643Z,44.00
2018-12-16T11:31:25.631Z,44.00
2018-12-16T11:32:25.638Z,44.00
2018-12-16T11:33:25.626Z,48.00
2018-12-16T11:34:25.611Z,48.00
2018-12-16T11:35:25.597Z,48.00
2018-12-16T11:36:25.577Z,48.00
2018-12-16T11:37:25.566Z,48.00
2018-12-16T11:38:25.581Z,48.00
2018-12-16T11:39:25.551Z,48.00
2018-12-16T11:40:25.530Z,48.00
2018-12-16T11:41:25.520Z,48.00
2018-12-16T11:42:25.508Z,48.00
2018-12-16T11:43:25.560Z,52.00
2018-12-16T11:44:25.488Z,48.00
2018-12-16T11:45:25.494Z,48.00
2018-12-16T11:46:25.465Z,52.00
2018-12-16T11:47:25.457Z,52.00
2018-12-16T11:48:26.340Z,48.00
2018-12-16T11:49:25.455Z,48.00
2018-12-16T11:50:25.428Z,48.00
2018-12-16T11:51:25.433Z,48.00
2018-12-16T11:52:25.403Z,48.00
2018-12-16T11:53:25.387Z,44.00
2018-12-16T11:54:25.393Z,52.00
2018-12-16T11:55:25.371Z,52.00
2018-12-16T11:56:25.367Z,52.00
2018-12-16T11:57:25.341Z,56.00
2018-12-16T11:58:25.337Z,56.00
2018-12-16T11:59:25.396Z,56.00
2018-12-16T12:00:25.308Z,60.00
2018-12-16T12:01:25.299Z,60.00
2018-12-16T12:02:25.291Z,60.00
2018-12-16T12:03:25.277Z,64.00
2018-12-16T12:04:25.305Z,72.00
2018-12-16T12:05:25.255Z,72.00
2018-12-16T12:06:25.249Z,72.00
2018-12-16T12:07:25.230Z,68.00
2018-12-16T12:08:25.228Z,72.00
2018-12-16T12:09:25.229Z,72.00
2018-12-16T12:10:25.196Z,72.00
2018-12-16T12:11:25.205Z,72.00
2018-12-16T12:12:25.184Z,72.00
2018-12-16T12:13:25.166Z,68.00
2018-12-16T12:14:25.163Z,72.00
2018-12-16T12:15:25.140Z,68.00
2018-12-16T12:16:25.130Z,64.00
2018-12-16T12:17:25.121Z,56.00
2018-12-16T12:18:25.121Z,52.00
2018-12-16T12:19:25.110Z,48.00
2018-12-16T12:20:25.103Z,48.00
2018-12-16T12:21:25.074Z,40.00
2018-12-16T12:22:25.064Z,40.00
2018-12-16T12:23:25.053Z,44.00
2018-12-16T12:24:25.054Z,40.00
2018-12-16T12:25:25.047Z,40.00
2018-12-16T12:26:25.032Z,40.00
2018-12-16T12:27:25.012Z,40.00
2018-12-16T12:28:24.998Z,44.00
2018-12-16T12:29:24.997Z,48.00
2018-12-16T12:30:24.975Z,48.00
2018-12-16T12:31:24.978Z,52.00
2018-12-16T12:32:24.953Z,52.00
2018-12-16T12:33:24.941Z,48.00
2018-12-16T12:34:24.969Z,48.00
2018-12-16T12:35:24.917Z,48.00
2018-12-16T12:36:24.906Z,44.00
2018-12-16T12:37:24.901Z,44.00
2018-12-16T12:38:24.884Z,44.00
2018-12-16T12:39:24.888Z,44.00
2018-12-16T12:40:24.861Z,48.00
2018-12-16T12:41:24.855Z,44.00
2018-12-16T12:42:24.844Z,48.00
2018-12-16T12:43:25.073Z,40.00
2018-12-16T12:44:24.887Z,40.00
2018-12-16T12:45:24.808Z,40.00
2018-12-16T12:46:24.803Z,40.00
2018-12-16T12:47:24.785Z,36.00
2018-12-16T12:48:24.787Z,36.00
2018-12-16T12:49:24.770Z,36.00
2018-12-16T12:50:24.771Z,36.00
2018-12-16T12:51:24.741Z,36.00
2018-12-16T12:52:24.728Z,32.00
2018-12-16T12:53:24.725Z,32.00
2018-12-16T12:54:24.707Z,32.00
2018-12-16T12:55:26.969Z,32.00
2018-12-16T12:56:24.687Z,32.00
2018-12-16T12:57:24.703Z,32.00
2018-12-16T12:58:24.672Z,28.00
2018-12-16T12:59:24.653Z,28.00
2018-12-16T13:00:25.724Z,32.00
2018-12-16T13:01:24.637Z,28.00
2018-12-16T13:02:24.620Z,28.00
2018-12-16T13:03:24.611Z,32.00
2018-12-16T13:04:24.594Z,32.00
2018-12-16T13:05:24.603Z,32.00
2018-12-16T13:06:24.580Z,32.00
2018-12-16T13:07:24.605Z,36.00
2018-12-16T13:08:24.551Z,40.00
2018-12-16T13:09:24.544Z,36.00